sensor_id;sensor_type;location;lat;lon;timestamp;pressure;altitude;pressure_sealevel;temperature;humidity
68855;BME280;69984;-43.570;172.580;2024-02-04T00:02:06;100570.94;;;23.98;48.04
68855;BME280;69984;-43.570;172.580;2024-02-04T00:04:33;100557.97;;;24.18;47.97
68855;BME280;69984;-43.570;172.580;2024-02-04T00:07:00;100572.88;;;24.26;45.67
68855;BME280;69984;-43.570;172.580;2024-02-04T00:09:27;100572.19;;;24.07;46.59
68855;BME280;69984;-43.570;172.580;2024-02-04T00:11:55;100581.66;;;23.98;45.33
68855;BME280;69984;-43.570;172.580;2024-02-04T00:14:22;100579.19;;;23.97;45.88
68855;BME280;69984;-43.570;172.580;2024-02-04T00:16:49;100581.50;;;24.05;46.51
68855;BME280;69984;-43.570;172.580;2024-02-04T00:19:16;100568.81;;;24.23;45.72
68855;BME280;69984;-43.570;172.580;2024-02-04T00:21:43;100580.00;;;24.20;46.48
68855;BME280;69984;-43.570;172.580;2024-02-04T00:24:10;100574.16;;;24.12;45.94
68855;BME280;69984;-43.570;172.580;2024-02-04T00:26:36;100565.75;;;24.60;45.24
68855;BME280;69984;-43.570;172.580;2024-02-04T00:29:03;100564.84;;;24.54;44.84
68855;BME280;69984;-43.570;172.580;2024-02-04T00:31:30;100568.22;;;24.78;43.50
68855;BME280;69984;-43.570;172.580;2024-02-04T00:33:57;100562.66;;;24.51;44.10
68855;BME280;69984;-43.570;172.580;2024-02-04T00:36:24;100556.03;;;24.42;45.94
68855;BME280;69984;-43.570;172.580;2024-02-04T00:38:51;100575.78;;;24.53;43.41
68855;BME280;69984;-43.570;172.580;2024-02-04T00:41:18;100575.44;;;24.77;44.52
68855;BME280;69984;-43.570;172.580;2024-02-04T00:43:45;100577.38;;;24.94;43.73
68855;BME280;69984;-43.570;172.580;2024-02-04T00:46:12;100571.13;;;25.21;44.08
68855;BME280;69984;-43.570;172.580;2024-02-04T00:48:39;100567.13;;;25.24;42.67
68855;BME280;69984;-43.570;172.580;2024-02-04T00:51:08;100545.41;;;25.59;44.00
68855;BME280;69984;-43.570;172.580;2024-02-04T00:53:36;100548.59;;;25.56;43.50
68855;BME280;69984;-43.570;172.580;2024-02-04T00:56:03;100550.38;;;25.33;42.71
68855;BME280;69984;-43.570;172.580;2024-02-04T00:58:31;100560.03;;;24.84;41.20
68855;BME280;69984;-43.570;172.580;2024-02-04T01:00:58;100554.19;;;25.38;42.16
68855;BME280;69984;-43.570;172.580;2024-02-04T01:03:25;100556.34;;;25.19;42.65
68855;BME280;69984;-43.570;172.580;2024-02-04T01:05:52;100550.66;;;25.15;42.48
68855;BME280;69984;-43.570;172.580;2024-02-04T01:08:19;100544.84;;;25.23;42.14
68855;BME280;69984;-43.570;172.580;2024-02-04T01:10:45;100543.56;;;25.81;40.86
68855;BME280;69984;-43.570;172.580;2024-02-04T01:13:13;100535.44;;;25.76;41.09
68855;BME280;69984;-43.570;172.580;2024-02-04T01:15:40;100517.94;;;25.52;39.73
68855;BME280;69984;-43.570;172.580;2024-02-04T01:18:07;100514.91;;;25.65;40.59
68855;BME280;69984;-43.570;172.580;2024-02-04T01:20:34;100514.53;;;25.40;40.17
68855;BME280;69984;-43.570;172.580;2024-02-04T01:23:01;100506.78;;;25.81;41.21
68855;BME280;69984;-43.570;172.580;2024-02-04T01:25:28;100518.69;;;26.12;39.79
68855;BME280;69984;-43.570;172.580;2024-02-04T01:27:55;100515.16;;;26.07;39.01
68855;BME280;69984;-43.570;172.580;2024-02-04T01:30:22;100523.78;;;26.30;38.31
68855;BME280;69984;-43.570;172.580;2024-02-04T01:32:49;100525.78;;;25.75;37.57
68855;BME280;69984;-43.570;172.580;2024-02-04T01:35:16;100520.47;;;25.80;38.12
68855;BME280;69984;-43.570;172.580;2024-02-04T01:37:43;100524.66;;;25.71;38.52
68855;BME280;69984;-43.570;172.580;2024-02-04T01:40:10;100520.03;;;26.31;39.56
68855;BME280;69984;-43.570;172.580;2024-02-04T01:42:37;100516.31;;;26.64;38.73
68855;BME280;69984;-43.570;172.580;2024-02-04T01:45:05;100525.19;;;26.65;35.80
68855;BME280;69984;-43.570;172.580;2024-02-04T01:47:32;100537.91;;;26.74;37.60
68855;BME280;69984;-43.570;172.580;2024-02-04T01:49:59;100538.19;;;26.73;35.95
68855;BME280;69984;-43.570;172.580;2024-02-04T01:52:27;100542.16;;;27.34;37.92
68855;BME280;69984;-43.570;172.580;2024-02-04T01:54:54;100553.66;;;27.56;36.94
68855;BME280;69984;-43.570;172.580;2024-02-04T01:57:22;100557.16;;;27.57;38.23
68855;BME280;69984;-43.570;172.580;2024-02-04T01:59:49;100552.44;;;27.37;37.26
68855;BME280;69984;-43.570;172.580;2024-02-04T02:02:19;100557.53;;;27.75;35.67
68855;BME280;69984;-43.570;172.580;2024-02-04T02:04:47;100554.03;;;27.80;35.63
68855;BME280;69984;-43.570;172.580;2024-02-04T02:07:14;100556.25;;;27.83;35.72
68855;BME280;69984;-43.570;172.580;2024-02-04T02:09:43;100539.75;;;28.32;37.31
68855;BME280;69984;-43.570;172.580;2024-02-04T02:14:45;100555.63;;;28.33;36.47
68855;BME280;69984;-43.570;172.580;2024-02-04T02:17:16;100553.25;;;28.42;35.99
68855;BME280;69984;-43.570;172.580;2024-02-04T02:23:06;100546.66;;;28.07;35.03
68855;BME280;69984;-43.570;172.580;2024-02-04T02:25:36;100528.72;;;28.53;35.68
68855;BME280;69984;-43.570;172.580;2024-02-04T02:28:03;100530.94;;;29.02;33.49
68855;BME280;69984;-43.570;172.580;2024-02-04T02:30:30;100520.41;;;28.90;33.78
68855;BME280;69984;-43.570;172.580;2024-02-04T02:32:57;100527.56;;;29.70;33.50
68855;BME280;69984;-43.570;172.580;2024-02-04T02:35:25;100540.75;;;29.97;33.36
68855;BME280;69984;-43.570;172.580;2024-02-04T02:38:23;100524.78;;;30.01;32.20
68855;BME280;69984;-43.570;172.580;2024-02-04T02:41:02;100524.38;;;29.58;31.96
68855;BME280;69984;-43.570;172.580;2024-02-04T02:43:30;100527.19;;;30.07;32.60
68855;BME280;69984;-43.570;172.580;2024-02-04T02:45:58;100524.13;;;29.55;32.05
68855;BME280;69984;-43.570;172.580;2024-02-04T02:48:26;100545.75;;;29.19;31.25
68855;BME280;69984;-43.570;172.580;2024-02-04T02:50:54;100536.59;;;29.36;32.09
68855;BME280;69984;-43.570;172.580;2024-02-04T02:53:21;100542.78;;;29.51;33.11
68855;BME280;69984;-43.570;172.580;2024-02-04T02:55:47;100541.97;;;29.36;33.25
68855;BME280;69984;-43.570;172.580;2024-02-04T02:58:14;100543.09;;;29.09;32.25
68855;BME280;69984;-43.570;172.580;2024-02-04T03:00:41;100540.63;;;29.18;33.07
68855;BME280;69984;-43.570;172.580;2024-02-04T03:03:08;100550.91;;;29.06;33.44
68855;BME280;69984;-43.570;172.580;2024-02-04T03:05:35;100548.47;;;29.04;31.62
68855;BME280;69984;-43.570;172.580;2024-02-04T03:08:03;100538.47;;;28.90;31.71
68855;BME280;69984;-43.570;172.580;2024-02-04T03:10:30;100538.44;;;29.45;32.27
68855;BME280;69984;-43.570;172.580;2024-02-04T03:12:57;100529.28;;;29.21;31.93
68855;BME280;69984;-43.570;172.580;2024-02-04T03:15:24;100526.03;;;29.24;32.20
68855;BME280;69984;-43.570;172.580;2024-02-04T03:17:51;100526.44;;;29.97;32.16
68855;BME280;69984;-43.570;172.580;2024-02-04T03:20:18;100537.72;;;30.58;32.14
68855;BME280;69984;-43.570;172.580;2024-02-04T03:22:45;100538.06;;;30.85;31.80
68855;BME280;69984;-43.570;172.580;2024-02-04T03:25:12;100542.31;;;31.25;30.01
68855;BME280;69984;-43.570;172.580;2024-02-04T03:27:42;100548.31;;;31.51;30.78
68855;BME280;69984;-43.570;172.580;2024-02-04T03:30:10;100555.16;;;31.43;29.62
68855;BME280;69984;-43.570;172.580;2024-02-04T03:32:37;100564.50;;;31.03;30.02
68855;BME280;69984;-43.570;172.580;2024-02-04T03:35:04;100562.69;;;31.23;29.74
68855;BME280;69984;-43.570;172.580;2024-02-04T03:37:31;100568.44;;;31.45;29.47
68855;BME280;69984;-43.570;172.580;2024-02-04T03:39:58;100575.84;;;31.34;29.96
68855;BME280;69984;-43.570;172.580;2024-02-04T03:42:25;100580.13;;;30.18;31.96
68855;BME280;69984;-43.570;172.580;2024-02-04T03:44:53;100563.09;;;30.67;32.70
68855;BME280;69984;-43.570;172.580;2024-02-04T03:47:20;100556.28;;;30.75;32.07
68855;BME280;69984;-43.570;172.580;2024-02-04T03:49:47;100555.25;;;30.65;31.41
68855;BME280;69984;-43.570;172.580;2024-02-04T03:52:14;100555.41;;;30.79;32.08
68855;BME280;69984;-43.570;172.580;2024-02-04T03:54:41;100557.50;;;30.92;32.03
68855;BME280;69984;-43.570;172.580;2024-02-04T03:57:08;100562.28;;;30.71;32.21
68855;BME280;69984;-43.570;172.580;2024-02-04T03:59:35;100565.41;;;29.75;33.82
68855;BME280;69984;-43.570;172.580;2024-02-04T04:02:02;100579.25;;;30.82;33.18
68855;BME280;69984;-43.570;172.580;2024-02-04T04:04:29;100590.84;;;31.55;31.77
68855;BME280;69984;-43.570;172.580;2024-02-04T04:06:55;100588.94;;;30.44;31.90
68855;BME280;69984;-43.570;172.580;2024-02-04T04:09:22;100584.91;;;30.86;31.67
68855;BME280;69984;-43.570;172.580;2024-02-04T04:11:49;100603.69;;;31.68;31.52
68855;BME280;69984;-43.570;172.580;2024-02-04T04:14:16;100602.13;;;32.15;30.94
68855;BME280;69984;-43.570;172.580;2024-02-04T04:16:43;100605.72;;;32.48;30.21
68855;BME280;69984;-43.570;172.580;2024-02-04T04:19:10;100595.38;;;31.60;31.14
68855;BME280;69984;-43.570;172.580;2024-02-04T04:21:38;100588.59;;;31.86;29.64
68855;BME280;69984;-43.570;172.580;2024-02-04T04:24:06;100583.28;;;31.76;31.16
68855;BME280;69984;-43.570;172.580;2024-02-04T04:26:33;100578.38;;;32.44;31.22
68855;BME280;69984;-43.570;172.580;2024-02-04T04:29:00;100581.38;;;32.00;31.36
68855;BME280;69984;-43.570;172.580;2024-02-04T04:31:27;100582.44;;;30.89;31.26
68855;BME280;69984;-43.570;172.580;2024-02-04T04:33:55;100595.25;;;30.19;32.34
68855;BME280;69984;-43.570;172.580;2024-02-04T04:36:22;100606.00;;;30.35;32.64
68855;BME280;69984;-43.570;172.580;2024-02-04T04:38:49;100606.47;;;29.72;33.88
68855;BME280;69984;-43.570;172.580;2024-02-04T04:41:16;100607.81;;;29.80;33.67
68855;BME280;69984;-43.570;172.580;2024-02-04T04:43:43;100598.72;;;30.30;33.33
68855;BME280;69984;-43.570;172.580;2024-02-04T04:46:10;100596.56;;;31.20;31.21
68855;BME280;69984;-43.570;172.580;2024-02-04T04:48:37;100609.81;;;32.27;29.99
68855;BME280;69984;-43.570;172.580;2024-02-04T04:51:07;100612.19;;;32.33;29.02
68855;BME280;69984;-43.570;172.580;2024-02-04T04:53:34;100615.25;;;32.03;25.23
68855;BME280;69984;-43.570;172.580;2024-02-04T04:56:01;100614.59;;;31.63;24.66
68855;BME280;69984;-43.570;172.580;2024-02-04T04:58:28;100615.69;;;30.41;25.43
68855;BME280;69984;-43.570;172.580;2024-02-04T05:00:55;100615.91;;;29.95;26.41
68855;BME280;69984;-43.570;172.580;2024-02-04T05:03:22;100598.06;;;29.94;27.03
68855;BME280;69984;-43.570;172.580;2024-02-04T05:05:49;100601.81;;;30.03;26.74
68855;BME280;69984;-43.570;172.580;2024-02-04T05:08:15;100599.97;;;29.84;26.18
68855;BME280;69984;-43.570;172.580;2024-02-04T05:10:42;100596.78;;;29.61;27.35
68855;BME280;69984;-43.570;172.580;2024-02-04T05:13:09;100606.28;;;29.34;27.24
68855;BME280;69984;-43.570;172.580;2024-02-04T05:15:36;100606.09;;;30.14;26.47
68855;BME280;69984;-43.570;172.580;2024-02-04T05:18:03;100614.81;;;29.96;26.58
68855;BME280;69984;-43.570;172.580;2024-02-04T05:20:30;100606.75;;;29.86;26.57
68855;BME280;69984;-43.570;172.580;2024-02-04T05:22:57;100609.16;;;29.98;27.03
68855;BME280;69984;-43.570;172.580;2024-02-04T05:25:24;100612.88;;;30.07;26.36
68855;BME280;69984;-43.570;172.580;2024-02-04T05:27:51;100623.16;;;30.15;26.80
68855;BME280;69984;-43.570;172.580;2024-02-04T05:30:18;100621.97;;;30.31;26.50
68855;BME280;69984;-43.570;172.580;2024-02-04T05:32:45;100612.97;;;29.77;27.15
68855;BME280;69984;-43.570;172.580;2024-02-04T05:35:12;100619.19;;;29.72;27.58
68855;BME280;69984;-43.570;172.580;2024-02-04T05:37:39;100626.19;;;29.93;26.94
68855;BME280;69984;-43.570;172.580;2024-02-04T05:40:07;100618.59;;;29.95;27.32
68855;BME280;69984;-43.570;172.580;2024-02-04T05:42:34;100624.84;;;29.91;27.23
68855;BME280;69984;-43.570;172.580;2024-02-04T05:45:02;100618.63;;;29.80;26.99
68855;BME280;69984;-43.570;172.580;2024-02-04T05:47:29;100631.00;;;30.01;27.18
68855;BME280;69984;-43.570;172.580;2024-02-04T05:49:56;100632.91;;;30.01;26.95
68855;BME280;69984;-43.570;172.580;2024-02-04T05:52:23;100630.91;;;30.27;27.07
68855;BME280;69984;-43.570;172.580;2024-02-04T05:54:50;100641.81;;;30.11;27.31
68855;BME280;69984;-43.570;172.580;2024-02-04T05:57:17;100644.06;;;30.58;26.64
68855;BME280;69984;-43.570;172.580;2024-02-04T05:59:46;100643.63;;;30.85;26.46
68855;BME280;69984;-43.570;172.580;2024-02-04T06:02:14;100648.13;;;30.61;26.59
68855;BME280;69984;-43.570;172.580;2024-02-04T06:04:41;100652.59;;;31.58;25.77
68855;BME280;69984;-43.570;172.580;2024-02-04T06:07:08;100645.31;;;31.83;24.51
68855;BME280;69984;-43.570;172.580;2024-02-04T06:09:36;100662.38;;;30.02;26.43
68855;BME280;69984;-43.570;172.580;2024-02-04T06:12:03;100650.47;;;29.98;26.93
68855;BME280;69984;-43.570;172.580;2024-02-04T06:14:33;100670.66;;;30.90;25.94
68855;BME280;69984;-43.570;172.580;2024-02-04T06:17:06;100665.16;;;29.52;27.04
68855;BME280;69984;-43.570;172.580;2024-02-04T06:19:37;100667.50;;;30.04;26.91
68855;BME280;69984;-43.570;172.580;2024-02-04T06:22:04;100663.03;;;30.53;26.21
68855;BME280;69984;-43.570;172.580;2024-02-04T06:24:31;100663.66;;;30.84;25.36
68855;BME280;69984;-43.570;172.580;2024-02-04T06:26:58;100675.66;;;29.84;26.60
68855;BME280;69984;-43.570;172.580;2024-02-04T06:29:25;100677.44;;;30.23;26.16
68855;BME280;69984;-43.570;172.580;2024-02-04T06:31:52;100677.03;;;30.65;26.05
68855;BME280;69984;-43.570;172.580;2024-02-04T06:34:19;100679.16;;;29.49;27.07
68855;BME280;69984;-43.570;172.580;2024-02-04T06:36:46;100686.44;;;29.84;27.33
68855;BME280;69984;-43.570;172.580;2024-02-04T06:39:13;100689.84;;;30.40;26.53
68855;BME280;69984;-43.570;172.580;2024-02-04T06:41:41;100687.00;;;31.24;25.09
68855;BME280;69984;-43.570;172.580;2024-02-04T06:44:10;100683.13;;;30.91;25.55
68855;BME280;69984;-43.570;172.580;2024-02-04T06:46:38;100685.44;;;30.64;25.82
68855;BME280;69984;-43.570;172.580;2024-02-04T06:49:05;100679.28;;;30.48;25.96
68855;BME280;69984;-43.570;172.580;2024-02-04T06:51:31;100691.22;;;30.27;26.46
68855;BME280;69984;-43.570;172.580;2024-02-04T06:53:58;100695.53;;;31.02;25.93
68855;BME280;69984;-43.570;172.580;2024-02-04T06:56:27;100710.25;;;31.25;25.50
68855;BME280;69984;-43.570;172.580;2024-02-04T06:58:54;100720.47;;;30.94;26.12
68855;BME280;69984;-43.570;172.580;2024-02-04T07:01:21;100705.91;;;29.30;26.78
68855;BME280;69984;-43.570;172.580;2024-02-04T07:03:48;100701.03;;;29.52;26.78
68855;BME280;69984;-43.570;172.580;2024-02-04T07:06:16;100697.56;;;29.87;26.88
68855;BME280;69984;-43.570;172.580;2024-02-04T07:08:43;100716.03;;;28.77;28.01
68855;BME280;69984;-43.570;172.580;2024-02-04T07:11:10;100723.81;;;28.69;28.23
68855;BME280;69984;-43.570;172.580;2024-02-04T07:13:36;100721.63;;;28.14;28.50
68855;BME280;69984;-43.570;172.580;2024-02-04T07:16:03;100720.28;;;28.16;28.76
68855;BME280;69984;-43.570;172.580;2024-02-04T07:18:30;100727.72;;;27.14;29.97
68855;BME280;69984;-43.570;172.580;2024-02-04T07:20:57;100721.72;;;27.07;30.23
68855;BME280;69984;-43.570;172.580;2024-02-04T07:23:24;100720.63;;;26.81;31.11
68855;BME280;69984;-43.570;172.580;2024-02-04T07:25:51;100719.50;;;27.25;30.42
68855;BME280;69984;-43.570;172.580;2024-02-04T07:28:18;100712.28;;;27.58;30.30
68855;BME280;69984;-43.570;172.580;2024-02-04T07:30:45;100729.03;;;26.46;31.26
68855;BME280;69984;-43.570;172.580;2024-02-04T07:33:12;100733.66;;;25.96;32.55
68855;BME280;69984;-43.570;172.580;2024-02-04T07:35:39;100729.41;;;24.93;33.62
68855;BME280;69984;-43.570;172.580;2024-02-04T07:38:06;100734.28;;;24.21;34.80
68855;BME280;69984;-43.570;172.580;2024-02-04T07:40:34;100734.25;;;23.86;35.88
68855;BME280;69984;-43.570;172.580;2024-02-04T07:43:01;100743.41;;;23.56;36.57
68855;BME280;69984;-43.570;172.580;2024-02-04T07:45:28;100758.06;;;23.65;36.61
68855;BME280;69984;-43.570;172.580;2024-02-04T07:47:55;100765.22;;;23.82;36.13
68855;BME280;69984;-43.570;172.580;2024-02-04T07:50:22;100762.06;;;23.74;36.12
68855;BME280;69984;-43.570;172.580;2024-02-04T07:52:49;100771.84;;;23.80;35.91
68855;BME280;69984;-43.570;172.580;2024-02-04T07:55:16;100775.66;;;23.72;36.06
68855;BME280;69984;-43.570;172.580;2024-02-04T07:57:43;100777.97;;;23.57;36.35
68855;BME280;69984;-43.570;172.580;2024-02-04T08:00:10;100780.88;;;23.56;36.69
68855;BME280;69984;-43.570;172.580;2024-02-04T08:02:37;100792.97;;;23.58;36.39
68855;BME280;69984;-43.570;172.580;2024-02-04T08:05:05;100795.75;;;23.52;36.82
68855;BME280;69984;-43.570;172.580;2024-02-04T08:07:32;100808.03;;;23.41;36.92
68855;BME280;69984;-43.570;172.580;2024-02-04T08:09:59;100817.25;;;23.45;36.70
68855;BME280;69984;-43.570;172.580;2024-02-04T08:12:26;100830.44;;;23.40;37.49
68855;BME280;69984;-43.570;172.580;2024-02-04T08:14:53;100819.38;;;23.36;36.80
68855;BME280;69984;-43.570;172.580;2024-02-04T08:17:20;100822.66;;;23.38;36.56
68855;BME280;69984;-43.570;172.580;2024-02-04T08:19:48;100822.38;;;23.28;37.37
68855;BME280;69984;-43.570;172.580;2024-02-04T08:22:14;100825.59;;;23.01;37.88
68855;BME280;69984;-43.570;172.580;2024-02-04T08:24:44;100822.03;;;22.64;38.34
68855;BME280;69984;-43.570;172.580;2024-02-04T08:27:11;100822.69;;;22.16;39.43
68855;BME280;69984;-43.570;172.580;2024-02-04T08:29:38;100828.56;;;22.00;38.99
68855;BME280;69984;-43.570;172.580;2024-02-04T08:32:05;100839.84;;;22.02;39.21
68855;BME280;69984;-43.570;172.580;2024-02-04T08:34:32;100844.13;;;22.03;38.82
68855;BME280;69984;-43.570;172.580;2024-02-04T08:36:59;100837.06;;;21.90;39.18
68855;BME280;69984;-43.570;172.580;2024-02-04T08:39:26;100848.00;;;21.76;39.38
68855;BME280;69984;-43.570;172.580;2024-02-04T08:41:53;100864.13;;;21.56;39.79
68855;BME280;69984;-43.570;172.580;2024-02-04T08:44:20;100874.19;;;21.48;40.18
68855;BME280;69984;-43.570;172.580;2024-02-04T08:46:48;100873.72;;;21.57;40.01
68855;BME280;69984;-43.570;172.580;2024-02-04T08:49:15;100890.09;;;21.74;39.80
68855;BME280;69984;-43.570;172.580;2024-02-04T08:51:42;100902.72;;;21.85;39.38
68855;BME280;69984;-43.570;172.580;2024-02-04T08:54:09;100904.06;;;21.69;40.43
68855;BME280;69984;-43.570;172.580;2024-02-04T08:56:35;100904.41;;;21.79;40.05
68855;BME280;69984;-43.570;172.580;2024-02-04T08:59:02;100905.25;;;21.80;39.84
68855;BME280;69984;-43.570;172.580;2024-02-04T09:01:29;100915.03;;;21.92;39.56
68855;BME280;69984;-43.570;172.580;2024-02-04T09:03:56;100920.34;;;21.55;41.05
68855;BME280;69984;-43.570;172.580;2024-02-04T09:06:23;100926.69;;;21.54;40.97
68855;BME280;69984;-43.570;172.580;2024-02-04T09:08:50;100929.47;;;21.27;41.99
68855;BME280;69984;-43.570;172.580;2024-02-04T09:11:18;100942.59;;;21.03;42.95
68855;BME280;69984;-43.570;172.580;2024-02-04T09:13:48;100957.38;;;20.79;43.28
68855;BME280;69984;-43.570;172.580;2024-02-04T09:16:15;100950.63;;;20.89;42.58
68855;BME280;69984;-43.570;172.580;2024-02-04T09:18:42;100959.84;;;21.00;42.18
68855;BME280;69984;-43.570;172.580;2024-02-04T09:21:09;100955.28;;;21.01;41.44
68855;BME280;69984;-43.570;172.580;2024-02-04T09:23:36;100954.28;;;21.02;41.31
68855;BME280;69984;-43.570;172.580;2024-02-04T09:26:03;100963.94;;;20.96;41.22
68855;BME280;69984;-43.570;172.580;2024-02-04T09:28:30;100969.66;;;21.06;40.93
68855;BME280;69984;-43.570;172.580;2024-02-04T09:30:57;100969.88;;;21.11;41.13
68855;BME280;69984;-43.570;172.580;2024-02-04T09:33:24;100958.81;;;21.14;41.12
68855;BME280;69984;-43.570;172.580;2024-02-04T09:35:51;100957.78;;;20.76;41.88
68855;BME280;69984;-43.570;172.580;2024-02-04T09:38:19;100965.78;;;20.69;42.22
68855;BME280;69984;-43.570;172.580;2024-02-04T09:40:46;100965.16;;;20.74;42.05
68855;BME280;69984;-43.570;172.580;2024-02-04T09:43:14;100954.31;;;20.69;42.50
68855;BME280;69984;-43.570;172.580;2024-02-04T09:45:41;100959.22;;;20.72;42.02
68855;BME280;69984;-43.570;172.580;2024-02-04T09:48:09;100961.50;;;20.68;42.65
68855;BME280;69984;-43.570;172.580;2024-02-04T09:50:36;100982.34;;;20.52;43.76
68855;BME280;69984;-43.570;172.580;2024-02-04T09:53:07;100987.66;;;20.45;43.58
68855;BME280;69984;-43.570;172.580;2024-02-04T09:55:35;100987.91;;;20.63;43.91
68855;BME280;69984;-43.570;172.580;2024-02-04T09:58:05;101000.63;;;20.55;42.99
68855;BME280;69984;-43.570;172.580;2024-02-04T10:00:33;101004.47;;;20.59;42.60
68855;BME280;69984;-43.570;172.580;2024-02-04T10:03:00;100996.53;;;20.65;43.92
68855;BME280;69984;-43.570;172.580;2024-02-04T10:05:29;101002.88;;;20.64;43.48
68855;BME280;69984;-43.570;172.580;2024-02-04T10:07:56;101008.38;;;20.63;43.29
68855;BME280;69984;-43.570;172.580;2024-02-04T10:10:23;101027.44;;;20.60;44.15
68855;BME280;69984;-43.570;172.580;2024-02-04T10:12:50;101041.34;;;20.55;44.06
68855;BME280;69984;-43.570;172.580;2024-02-04T10:15:17;101049.75;;;20.52;44.18
68855;BME280;69984;-43.570;172.580;2024-02-04T10:17:47;101032.53;;;20.41;44.24
68855;BME280;69984;-43.570;172.580;2024-02-04T10:20:15;101022.00;;;20.27;43.42
68855;BME280;69984;-43.570;172.580;2024-02-04T10:22:42;101018.19;;;20.42;42.87
68855;BME280;69984;-43.570;172.580;2024-02-04T10:25:09;101012.47;;;20.52;43.77
68855;BME280;69984;-43.570;172.580;2024-02-04T10:27:41;101005.16;;;20.07;44.86
68855;BME280;69984;-43.570;172.580;2024-02-04T10:30:09;101016.56;;;19.87;45.49
68855;BME280;69984;-43.570;172.580;2024-02-04T10:32:36;101019.00;;;19.89;45.86
68855;BME280;69984;-43.570;172.580;2024-02-04T10:35:03;101029.34;;;19.71;45.57
68855;BME280;69984;-43.570;172.580;2024-02-04T10:37:30;101030.47;;;19.89;44.85
68855;BME280;69984;-43.570;172.580;2024-02-04T10:39:57;101042.53;;;19.85;45.89
68855;BME280;69984;-43.570;172.580;2024-02-04T10:42:25;101062.53;;;19.81;46.98
68855;BME280;69984;-43.570;172.580;2024-02-04T10:44:54;101062.47;;;19.68;46.05
68855;BME280;69984;-43.570;172.580;2024-02-04T10:47:29;101056.47;;;19.87;45.71
68855;BME280;69984;-43.570;172.580;2024-02-04T10:49:59;101056.19;;;19.76;46.61
68855;BME280;69984;-43.570;172.580;2024-02-04T10:52:37;101034.13;;;19.48;47.27
68855;BME280;69984;-43.570;172.580;2024-02-04T10:55:09;101016.28;;;19.14;48.04
68855;BME280;69984;-43.570;172.580;2024-02-04T10:57:38;101028.34;;;19.16;48.12
68855;BME280;69984;-43.570;172.580;2024-02-04T11:00:06;101030.41;;;18.93;49.22
68855;BME280;69984;-43.570;172.580;2024-02-04T11:02:38;101036.09;;;18.69;49.66
68855;BME280;69984;-43.570;172.580;2024-02-04T11:05:08;101024.97;;;18.80;50.21
68855;BME280;69984;-43.570;172.580;2024-02-04T11:07:37;101026.94;;;18.92;50.45
68855;BME280;69984;-43.570;172.580;2024-02-04T11:10:04;101027.66;;;18.44;51.89
68855;BME280;69984;-43.570;172.580;2024-02-04T11:12:33;101034.47;;;18.32;52.14
68855;BME280;69984;-43.570;172.580;2024-02-04T11:15:04;101051.81;;;18.13;53.04
68855;BME280;69984;-43.570;172.580;2024-02-04T11:27:45;101077.59;;;18.19;53.99
68855;BME280;69984;-43.570;172.580;2024-02-04T11:30:13;101078.25;;;18.21;53.94
68855;BME280;69984;-43.570;172.580;2024-02-04T11:32:41;101075.13;;;18.32;53.75
68855;BME280;69984;-43.570;172.580;2024-02-04T11:35:09;101071.59;;;18.46;53.24
68855;BME280;69984;-43.570;172.580;2024-02-04T11:37:38;101067.03;;;18.05;54.32
68855;BME280;69984;-43.570;172.580;2024-02-04T11:40:13;101079.63;;;18.03;54.37
68855;BME280;69984;-43.570;172.580;2024-02-04T11:42:41;101078.47;;;17.90;54.28
68855;BME280;69984;-43.570;172.580;2024-02-04T11:45:10;101096.44;;;18.10;53.30
68855;BME280;69984;-43.570;172.580;2024-02-04T11:47:37;101100.19;;;17.57;55.89
68855;BME280;69984;-43.570;172.580;2024-02-04T11:50:05;101100.22;;;17.71;55.35
68855;BME280;69984;-43.570;172.580;2024-02-04T11:52:33;101102.69;;;17.73;55.77
68855;BME280;69984;-43.570;172.580;2024-02-04T11:55:00;101101.75;;;17.80;54.66
68855;BME280;69984;-43.570;172.580;2024-02-04T11:57:27;101103.78;;;17.93;54.39
68855;BME280;69984;-43.570;172.580;2024-02-04T11:59:54;101125.72;;;18.16;53.79
68855;BME280;69984;-43.570;172.580;2024-02-04T12:02:24;101103.59;;;18.09;54.45
68855;BME280;69984;-43.570;172.580;2024-02-04T12:04:51;101100.69;;;18.04;55.02
68855;BME280;69984;-43.570;172.580;2024-02-04T12:07:19;101109.88;;;18.23;54.65
68855;BME280;69984;-43.570;172.580;2024-02-04T12:09:48;101109.34;;;18.13;54.91
68855;BME280;69984;-43.570;172.580;2024-02-04T12:12:16;101109.00;;;18.01;55.29
68855;BME280;69984;-43.570;172.580;2024-02-04T12:14:45;101094.63;;;17.95;55.32
68855;BME280;69984;-43.570;172.580;2024-02-04T12:17:12;101096.28;;;17.82;55.45
68855;BME280;69984;-43.570;172.580;2024-02-04T12:19:39;101093.06;;;17.72;56.43
68855;BME280;69984;-43.570;172.580;2024-02-04T12:22:07;101083.94;;;17.74;56.35
68855;BME280;69984;-43.570;172.580;2024-02-04T12:24:37;101106.81;;;17.38;57.50
68855;BME280;69984;-43.570;172.580;2024-02-04T12:27:05;101108.69;;;17.29;58.53
68855;BME280;69984;-43.570;172.580;2024-02-04T12:29:33;101108.53;;;17.45;58.52
68855;BME280;69984;-43.570;172.580;2024-02-04T12:32:01;101121.41;;;17.11;59.49
68855;BME280;69984;-43.570;172.580;2024-02-04T12:34:30;101117.34;;;17.01;60.00
68855;BME280;69984;-43.570;172.580;2024-02-04T12:36:59;101101.28;;;16.79;61.08
68855;BME280;69984;-43.570;172.580;2024-02-04T12:39:27;101095.28;;;16.63;62.38